sensor_id;sensor_type;location;lat;lon;timestamp;temperature;humidity
3752;DHT22;50827;47.014;7.652;2023-05-07T00:01:43;14.90;99.90
3752;DHT22;50827;47.014;7.652;2023-05-07T00:04:10;14.90;99.90
3752;DHT22;50827;47.014;7.652;2023-05-07T00:06:37;14.90;99.90
3752;DHT22;50827;47.014;7.652;2023-05-07T00:09:04;14.90;99.90
3752;DHT22;50827;47.014;7.652;2023-05-07T00:11:31;14.80;99.90
3752;DHT22;50827;47.014;7.652;2023-05-07T00:13:57;14.90;99.90
3752;DHT22;50827;47.014;7.652;2023-05-07T00:16:24;14.80;99.90
3752;DHT22;50827;47.014;7.652;2023-05-07T00:18:52;14.80;99.90
3752;DHT22;50827;47.014;7.652;2023-05-07T00:21:18;14.90;99.90
3752;DHT22;50827;47.014;7.652;2023-05-07T00:23:45;14.80;99.90
3752;DHT22;50827;47.014;7.652;2023-05-07T00:26:12;14.80;99.90
3752;DHT22;50827;47.014;7.652;2023-05-07T00:28:38;14.80;99.90
3752;DHT22;50827;47.014;7.652;2023-05-07T00:31:05;14.80;99.90
3752;DHT22;50827;47.014;7.652;2023-05-07T00:33:32;14.70;99.90
3752;DHT22;50827;47.014;7.652;2023-05-07T00:35:58;14.70;99.90
3752;DHT22;50827;47.014;7.652;2023-05-07T00:38:27;14.70;99.90
3752;DHT22;50827;47.014;7.652;2023-05-07T00:40:53;14.70;99.90
3752;DHT22;50827;47.014;7.652;2023-05-07T00:43:20;14.70;99.90
3752;DHT22;50827;47.014;7.652;2023-05-07T00:45:47;14.70;99.90
3752;DHT22;50827;47.014;7.652;2023-05-07T00:48:14;14.70;99.90
3752;DHT22;50827;47.014;7.652;2023-05-07T00:50:41;14.70;99.90
3752;DHT22;50827;47.014;7.652;2023-05-07T00:53:07;14.70;99.90
3752;DHT22;50827;47.014;7.652;2023-05-07T00:55:35;14.70;99.90
3752;DHT22;50827;47.014;7.652;2023-05-07T00:58:02;14.70;99.90
3752;DHT22;50827;47.014;7.652;2023-05-07T01:00:29;14.70;99.90
3752;DHT22;50827;47.014;7.652;2023-05-07T01:02:56;14.70;99.90
3752;DHT22;50827;47.014;7.652;2023-05-07T01:05:24;14.70;99.90
3752;DHT22;50827;47.014;7.652;2023-05-07T01:07:53;14.70;99.90
3752;DHT22;50827;47.014;7.652;2023-05-07T01:10:22;14.60;99.90
3752;DHT22;50827;47.014;7.652;2023-05-07T01:12:50;14.70;99.90
3752;DHT22;50827;47.014;7.652;2023-05-07T01:15:17;14.60;99.90
3752;DHT22;50827;47.014;7.652;2023-05-07T01:17:44;14.60;99.90
3752;DHT22;50827;47.014;7.652;2023-05-07T01:20:11;14.50;99.90
3752;DHT22;50827;47.014;7.652;2023-05-07T01:22:39;14.50;99.90
3752;DHT22;50827;47.014;7.652;2023-05-07T01:25:07;14.40;99.90
3752;DHT22;50827;47.014;7.652;2023-05-07T01:27:35;14.40;99.90
3752;DHT22;50827;47.014;7.652;2023-05-07T01:30:06;14.40;99.90
3752;DHT22;50827;47.014;7.652;2023-05-07T01:32:50;14.30;99.90
3752;DHT22;50827;47.014;7.652;2023-05-07T01:35:20;14.40;99.90
3752;DHT22;50827;47.014;7.652;2023-05-07T01:37:48;14.30;99.90
3752;DHT22;50827;47.014;7.652;2023-05-07T01:40:15;14.30;99.90
3752;DHT22;50827;47.014;7.652;2023-05-07T01:42:43;14.30;99.90
3752;DHT22;50827;47.014;7.652;2023-05-07T01:45:10;14.30;99.90
3752;DHT22;50827;47.014;7.652;2023-05-07T01:47:37;14.10;99.90
3752;DHT22;50827;47.014;7.652;2023-05-07T01:50:06;14.10;99.90
3752;DHT22;50827;47.014;7.652;2023-05-07T01:52:36;13.90;99.90
3752;DHT22;50827;47.014;7.652;2023-05-07T01:55:03;13.90;99.90
3752;DHT22;50827;47.014;7.652;2023-05-07T01:57:29;13.90;99.90
3752;DHT22;50827;47.014;7.652;2023-05-07T01:59:56;13.90;99.90
3752;DHT22;50827;47.014;7.652;2023-05-07T02:02:23;13.90;99.90
3752;DHT22;50827;47.014;7.652;2023-05-07T02:04:50;13.90;99.90
3752;DHT22;50827;47.014;7.652;2023-05-07T02:07:17;13.80;99.90
3752;DHT22;50827;47.014;7.652;2023-05-07T02:09:43;13.70;99.90
3752;DHT22;50827;47.014;7.652;2023-05-07T02:12:10;13.70;99.90
3752;DHT22;50827;47.014;7.652;2023-05-07T02:14:36;13.70;99.90
3752;DHT22;50827;47.014;7.652;2023-05-07T02:17:03;13.70;99.90
3752;DHT22;50827;47.014;7.652;2023-05-07T02:19:30;13.70;99.90
3752;DHT22;50827;47.014;7.652;2023-05-07T02:21:56;13.70;99.90
3752;DHT22;50827;47.014;7.652;2023-05-07T02:24:23;13.70;99.90
3752;DHT22;50827;47.014;7.652;2023-05-07T02:26:50;13.80;99.90
3752;DHT22;50827;47.014;7.652;2023-05-07T02:29:16;13.80;99.90
3752;DHT22;50827;47.014;7.652;2023-05-07T02:31:43;13.70;99.90
3752;DHT22;50827;47.014;7.652;2023-05-07T02:34:10;13.70;99.90
3752;DHT22;50827;47.014;7.652;2023-05-07T02:36:37;13.60;99.90
3752;DHT22;50827;47.014;7.652;2023-05-07T02:39:03;13.60;99.90
3752;DHT22;50827;47.014;7.652;2023-05-07T02:41:30;13.70;99.90
3752;DHT22;50827;47.014;7.652;2023-05-07T02:43:57;13.70;99.90
3752;DHT22;50827;47.014;7.652;2023-05-07T02:46:23;13.70;99.90
3752;DHT22;50827;47.014;7.652;2023-05-07T02:48:50;13.60;99.90
3752;DHT22;50827;47.014;7.652;2023-05-07T02:51:20;13.50;99.90
3752;DHT22;50827;47.014;7.652;2023-05-07T02:53:50;13.50;99.90
3752;DHT22;50827;47.014;7.652;2023-05-07T02:56:17;13.50;99.90
3752;DHT22;50827;47.014;7.652;2023-05-07T02:58:44;13.40;99.90
3752;DHT22;50827;47.014;7.652;2023-05-07T03:01:10;13.40;99.90
3752;DHT22;50827;47.014;7.652;2023-05-07T03:03:37;13.40;99.90
3752;DHT22;50827;47.014;7.652;2023-05-07T03:06:04;13.30;99.90
3752;DHT22;50827;47.014;7.652;2023-05-07T03:08:31;13.20;99.90
3752;DHT22;50827;47.014;7.652;2023-05-07T03:10:58;13.30;99.90
3752;DHT22;50827;47.014;7.652;2023-05-07T03:13:24;13.30;99.90
3752;DHT22;50827;47.014;7.652;2023-05-07T03:15:51;13.20;99.90
3752;DHT22;50827;47.014;7.652;2023-05-07T03:18:18;13.20;99.90
3752;DHT22;50827;47.014;7.652;2023-05-07T03:20:47;13.20;99.90
3752;DHT22;50827;47.014;7.652;2023-05-07T03:23:14;13.10;99.90
3752;DHT22;50827;47.014;7.652;2023-05-07T03:25:41;13.10;99.90
3752;DHT22;50827;47.014;7.652;2023-05-07T03:28:08;13.10;99.90
3752;DHT22;50827;47.014;7.652;2023-05-07T03:30:34;13.10;99.90
3752;DHT22;50827;47.014;7.652;2023-05-07T03:33:01;13.00;99.90
3752;DHT22;50827;47.014;7.652;2023-05-07T03:35:27;12.90;99.90
3752;DHT22;50827;47.014;7.652;2023-05-07T03:37:54;12.90;99.90
3752;DHT22;50827;47.014;7.652;2023-05-07T03:40:21;12.90;99.90
3752;DHT22;50827;47.014;7.652;2023-05-07T03:42:47;12.90;99.90
3752;DHT22;50827;47.014;7.652;2023-05-07T03:45:14;12.90;99.90
3752;DHT22;50827;47.014;7.652;2023-05-07T03:47:41;12.90;99.90
3752;DHT22;50827;47.014;7.652;2023-05-07T03:50:08;12.90;99.90
3752;DHT22;50827;47.014;7.652;2023-05-07T03:52:35;12.90;99.90
3752;DHT22;50827;47.014;7.652;2023-05-07T03:55:02;12.90;99.90
3752;DHT22;50827;47.014;7.652;2023-05-07T03:57:28;12.90;99.90
3752;DHT22;50827;47.014;7.652;2023-05-07T03:59:55;12.90;99.90
3752;DHT22;50827;47.014;7.652;2023-05-07T04:02:22;12.80;99.90
3752;DHT22;50827;47.014;7.652;2023-05-07T04:04:49;12.80;99.90
3752;DHT22;50827;47.014;7.652;2023-05-07T04:07:16;12.80;99.90
3752;DHT22;50827;47.014;7.652;2023-05-07T04:09:43;12.80;99.90
3752;DHT22;50827;47.014;7.652;2023-05-07T04:12:09;12.80;99.90
3752;DHT22;50827;47.014;7.652;2023-05-07T04:14:36;12.90;99.90
3752;DHT22;50827;47.014;7.652;2023-05-07T04:17:03;12.90;99.90
3752;DHT22;50827;47.014;7.652;2023-05-07T04:19:29;13.00;99.90
3752;DHT22;50827;47.014;7.652;2023-05-07T04:21:56;12.90;99.90
3752;DHT22;50827;47.014;7.652;2023-05-07T04:24:23;12.90;99.90
3752;DHT22;50827;47.014;7.652;2023-05-07T04:26:49;12.90;99.90
3752;DHT22;50827;47.014;7.652;2023-05-07T04:29:17;13.00;99.90
3752;DHT22;50827;47.014;7.652;2023-05-07T04:31:44;12.90;99.90
3752;DHT22;50827;47.014;7.652;2023-05-07T04:34:11;12.90;99.90
3752;DHT22;50827;47.014;7.652;2023-05-07T04:36:38;12.90;99.90
3752;DHT22;50827;47.014;7.652;2023-05-07T04:39:05;12.80;99.90
3752;DHT22;50827;47.014;7.652;2023-05-07T04:41:32;12.70;99.90
3752;DHT22;50827;47.014;7.652;2023-05-07T04:43:59;12.80;99.90
3752;DHT22;50827;47.014;7.652;2023-05-07T04:46:26;12.80;99.90
3752;DHT22;50827;47.014;7.652;2023-05-07T04:48:53;12.70;99.90
3752;DHT22;50827;47.014;7.652;2023-05-07T04:51:19;12.70;99.90
3752;DHT22;50827;47.014;7.652;2023-05-07T04:53:46;12.70;99.90
3752;DHT22;50827;47.014;7.652;2023-05-07T04:56:13;12.80;99.90
3752;DHT22;50827;47.014;7.652;2023-05-07T04:58:39;12.80;99.90
3752;DHT22;50827;47.014;7.652;2023-05-07T05:01:06;12.80;99.90
3752;DHT22;50827;47.014;7.652;2023-05-07T05:03:32;12.80;99.90
3752;DHT22;50827;47.014;7.652;2023-05-07T05:05:59;12.80;99.90
3752;DHT22;50827;47.014;7.652;2023-05-07T05:08:26;12.90;99.90
3752;DHT22;50827;47.014;7.652;2023-05-07T05:10:52;12.90;99.90
3752;DHT22;50827;47.014;7.652;2023-05-07T05:13:19;12.90;99.90
3752;DHT22;50827;47.014;7.652;2023-05-07T05:15:46;13.00;99.90
3752;DHT22;50827;47.014;7.652;2023-05-07T05:18:13;13.00;99.90
3752;DHT22;50827;47.014;7.652;2023-05-07T05:20:39;13.10;99.90
3752;DHT22;50827;47.014;7.652;2023-05-07T05:23:07;13.10;99.90
3752;DHT22;50827;47.014;7.652;2023-05-07T05:25:34;13.20;99.90
3752;DHT22;50827;47.014;7.652;2023-05-07T05:28:01;13.20;99.90
3752;DHT22;50827;47.014;7.652;2023-05-07T05:30:27;13.20;99.90
3752;DHT22;50827;47.014;7.652;2023-05-07T05:32:54;13.30;99.90
3752;DHT22;50827;47.014;7.652;2023-05-07T05:35:21;13.30;99.90
3752;DHT22;50827;47.014;7.652;2023-05-07T05:37:47;13.30;99.90
3752;DHT22;50827;47.014;7.652;2023-05-07T05:40:14;13.40;99.90
3752;DHT22;50827;47.014;7.652;2023-05-07T05:42:41;13.30;99.90
3752;DHT22;50827;47.014;7.652;2023-05-07T05:45:08;13.40;99.90
3752;DHT22;50827;47.014;7.652;2023-05-07T05:47:35;13.40;99.90
3752;DHT22;50827;47.014;7.652;2023-05-07T05:50:01;13.50;99.90
3752;DHT22;50827;47.014;7.652;2023-05-07T05:52:28;13.50;99.90
3752;DHT22;50827;47.014;7.652;2023-05-07T05:54:55;13.50;99.90
3752;DHT22;50827;47.014;7.652;2023-05-07T05:57:21;13.60;99.90
3752;DHT22;50827;47.014;7.652;2023-05-07T05:59:48;13.70;99.90
3752;DHT22;50827;47.014;7.652;2023-05-07T06:02:15;13.90;99.90
3752;DHT22;50827;47.014;7.652;2023-05-07T06:04:42;14.00;99.90
3752;DHT22;50827;47.014;7.652;2023-05-07T06:07:09;14.00;99.90
3752;DHT22;50827;47.014;7.652;2023-05-07T06:09:36;14.10;99.90
3752;DHT22;50827;47.014;7.652;2023-05-07T06:12:02;14.10;99.90
3752;DHT22;50827;47.014;7.652;2023-05-07T06:14:29;14.10;99.90
3752;DHT22;50827;47.014;7.652;2023-05-07T06:16:56;14.20;99.90
3752;DHT22;50827;47.014;7.652;2023-05-07T06:19:23;14.20;99.90
3752;DHT22;50827;47.014;7.652;2023-05-07T06:21:50;14.20;99.90
3752;DHT22;50827;47.014;7.652;2023-05-07T06:24:17;14.30;99.90
3752;DHT22;50827;47.014;7.652;2023-05-07T06:26:43;14.30;99.90
3752;DHT22;50827;47.014;7.652;2023-05-07T06:29:10;14.40;99.90
3752;DHT22;50827;47.014;7.652;2023-05-07T06:31:37;14.40;99.90
3752;DHT22;50827;47.014;7.652;2023-05-07T06:34:04;14.50;99.90
3752;DHT22;50827;47.014;7.652;2023-05-07T06:36:31;14.70;99.90
3752;DHT22;50827;47.014;7.652;2023-05-07T06:38:58;14.70;99.90
3752;DHT22;50827;47.014;7.652;2023-05-07T06:41:24;14.90;99.90
3752;DHT22;50827;47.014;7.652;2023-05-07T06:43:52;15.00;99.90
3752;DHT22;50827;47.014;7.652;2023-05-07T06:46:18;15.10;99.90
3752;DHT22;50827;47.014;7.652;2023-05-07T06:48:45;15.10;99.90
3752;DHT22;50827;47.014;7.652;2023-05-07T06:51:12;15.10;99.90
3752;DHT22;50827;47.014;7.652;2023-05-07T06:53:39;15.20;99.90
3752;DHT22;50827;47.014;7.652;2023-05-07T06:56:05;15.20;99.90
3752;DHT22;50827;47.014;7.652;2023-05-07T06:58:32;15.20;99.90
3752;DHT22;50827;47.014;7.652;2023-05-07T07:00:59;15.30;99.90
3752;DHT22;50827;47.014;7.652;2023-05-07T07:03:26;15.40;99.90
3752;DHT22;50827;47.014;7.652;2023-05-07T07:05:54;15.40;99.90
3752;DHT22;50827;47.014;7.652;2023-05-07T07:08:22;15.60;99.90
3752;DHT22;50827;47.014;7.652;2023-05-07T07:10:48;15.60;99.90
3752;DHT22;50827;47.014;7.652;2023-05-07T07:13:15;15.70;99.90
3752;DHT22;50827;47.014;7.652;2023-05-07T07:15:43;15.70;99.90
3752;DHT22;50827;47.014;7.652;2023-05-07T07:18:10;15.80;99.90
3752;DHT22;50827;47.014;7.652;2023-05-07T07:20:37;15.90;99.90
3752;DHT22;50827;47.014;7.652;2023-05-07T07:23:03;16.10;99.90
3752;DHT22;50827;47.014;7.652;2023-05-07T07:25:30;16.20;99.90
3752;DHT22;50827;47.014;7.652;2023-05-07T07:27:57;16.30;99.90
3752;DHT22;50827;47.014;7.652;2023-05-07T07:30:24;16.40;99.90
3752;DHT22;50827;47.014;7.652;2023-05-07T07:32:51;16.40;99.90
3752;DHT22;50827;47.014;7.652;2023-05-07T07:35:19;16.50;99.90
3752;DHT22;50827;47.014;7.652;2023-05-07T07:37:46;16.60;99.90
3752;DHT22;50827;47.014;7.652;2023-05-07T07:40:14;16.70;99.90
3752;DHT22;50827;47.014;7.652;2023-05-07T07:42:40;16.80;99.90
3752;DHT22;50827;47.014;7.652;2023-05-07T07:45:07;16.90;99.90
3752;DHT22;50827;47.014;7.652;2023-05-07T07:47:34;17.00;99.90
3752;DHT22;50827;47.014;7.652;2023-05-07T07:50:01;17.10;99.90
3752;DHT22;50827;47.014;7.652;2023-05-07T07:52:28;17.10;99.90
3752;DHT22;50827;47.014;7.652;2023-05-07T07:54:54;17.20;99.90
3752;DHT22;50827;47.014;7.652;2023-05-07T07:57:21;17.20;99.90
3752;DHT22;50827;47.014;7.652;2023-05-07T07:59:47;17.30;99.90
3752;DHT22;50827;47.014;7.652;2023-05-07T08:02:14;17.40;99.90
3752;DHT22;50827;47.014;7.652;2023-05-07T08:04:41;17.40;99.90
3752;DHT22;50827;47.014;7.652;2023-05-07T08:07:12;17.40;99.90
3752;DHT22;50827;47.014;7.652;2023-05-07T08:09:39;17.50;99.90
3752;DHT22;50827;47.014;7.652;2023-05-07T08:12:06;17.50;99.90
3752;DHT22;50827;47.014;7.652;2023-05-07T08:14:34;17.50;99.90
3752;DHT22;50827;47.014;7.652;2023-05-07T08:17:00;17.50;99.90
3752;DHT22;50827;47.014;7.652;2023-05-07T08:19:27;17.50;99.90
3752;DHT22;50827;47.014;7.652;2023-05-07T08:21:54;17.60;99.90
3752;DHT22;50827;47.014;7.652;2023-05-07T08:24:21;17.60;99.90
3752;DHT22;50827;47.014;7.652;2023-05-07T08:26:48;17.70;99.90
3752;DHT22;50827;47.014;7.652;2023-05-07T08:29:15;17.70;99.90
3752;DHT22;50827;47.014;7.652;2023-05-07T08:31:42;17.70;99.90
3752;DHT22;50827;47.014;7.652;2023-05-07T08:34:09;17.70;99.90
3752;DHT22;50827;47.014;7.652;2023-05-07T08:36:36;17.80;99.90
3752;DHT22;50827;47.014;7.652;2023-05-07T08:39:02;17.80;99.90
3752;DHT22;50827;47.014;7.652;2023-05-07T08:41:30;17.80;99.90
3752;DHT22;50827;47.014;7.652;2023-05-07T08:43:58;17.90;99.90
3752;DHT22;50827;47.014;7.652;2023-05-07T08:46:31;17.90;99.90
3752;DHT22;50827;47.014;7.652;2023-05-07T08:48:58;18.00;99.90
3752;DHT22;50827;47.014;7.652;2023-05-07T08:51:25;18.00;99.90
3752;DHT22;50827;47.014;7.652;2023-05-07T08:53:52;18.10;99.90
3752;DHT22;50827;47.014;7.652;2023-05-07T08:56:18;18.10;99.90
3752;DHT22;50827;47.014;7.652;2023-05-07T08:58:48;18.20;99.90
3752;DHT22;50827;47.014;7.652;2023-05-07T09:01:16;18.20;99.90
3752;DHT22;50827;47.014;7.652;2023-05-07T09:03:45;18.30;99.90
3752;DHT22;50827;47.014;7.652;2023-05-07T09:06:12;18.30;99.90
3752;DHT22;50827;47.014;7.652;2023-05-07T09:08:39;18.40;99.90
3752;DHT22;50827;47.014;7.652;2023-05-07T09:11:05;18.50;99.90
3752;DHT22;50827;47.014;7.652;2023-05-07T09:13:32;18.60;99.90
3752;DHT22;50827;47.014;7.652;2023-05-07T09:16:10;18.70;99.90
3752;DHT22;50827;47.014;7.652;2023-05-07T09:18:43;18.80;99.90
3752;DHT22;50827;47.014;7.652;2023-05-07T09:21:15;18.70;99.90
3752;DHT22;50827;47.014;7.652;2023-05-07T09:23:42;18.80;99.90
3752;DHT22;50827;47.014;7.652;2023-05-07T09:26:08;18.80;99.90
3752;DHT22;50827;47.014;7.652;2023-05-07T09:28:41;18.90;99.90
3752;DHT22;50827;47.014;7.652;2023-05-07T09:31:09;18.90;99.90
3752;DHT22;50827;47.014;7.652;2023-05-07T09:33:36;19.00;99.90
3752;DHT22;50827;47.014;7.652;2023-05-07T09:36:07;19.00;99.90
3752;DHT22;50827;47.014;7.652;2023-05-07T09:38:36;19.10;99.90
3752;DHT22;50827;47.014;7.652;2023-05-07T09:43:34;19.20;99.90
3752;DHT22;50827;47.014;7.652;2023-05-07T09:46:11;19.30;99.90
3752;DHT22;50827;47.014;7.652;2023-05-07T09:48:39;19.30;99.90
3752;DHT22;50827;47.014;7.652;2023-05-07T09:53:45;19.40;99.90
3752;DHT22;50827;47.014;7.652;2023-05-07T09:56:14;19.40;99.90
3752;DHT22;50827;47.014;7.652;2023-05-07T09:58:42;19.40;99.90
3752;DHT22;50827;47.014;7.652;2023-05-07T10:01:11;19.50;99.90
3752;DHT22;50827;47.014;7.652;2023-05-07T10:03:41;19.60;99.90
3752;DHT22;50827;47.014;7.652;2023-05-07T10:06:10;19.80;99.90
3752;DHT22;50827;47.014;7.652;2023-05-07T10:08:37;19.80;99.90
3752;DHT22;50827;47.014;7.652;2023-05-07T10:11:05;19.90;99.90
3752;DHT22;50827;47.014;7.652;2023-05-07T10:13:35;20.00;99.90
3752;DHT22;50827;47.014;7.652;2023-05-07T10:16:06;19.90;99.90
3752;DHT22;50827;47.014;7.652;2023-05-07T10:18:34;20.10;99.90
3752;DHT22;50827;47.014;7.652;2023-05-07T10:21:08;20.10;99.90
3752;DHT22;50827;47.014;7.652;2023-05-07T10:23:35;20.20;99.90
3752;DHT22;50827;47.014;7.652;2023-05-07T10:26:04;20.20;99.90
3752;DHT22;50827;47.014;7.652;2023-05-07T10:28:37;20.30;99.90
3752;DHT22;50827;47.014;7.652;2023-05-07T10:31:11;20.40;99.90
3752;DHT22;50827;47.014;7.652;2023-05-07T10:33:42;20.50;99.90
3752;DHT22;50827;47.014;7.652;2023-05-07T10:36:11;20.60;99.90
3752;DHT22;50827;47.014;7.652;2023-05-07T10:38:38;20.70;99.90
3752;DHT22;50827;47.014;7.652;2023-05-07T10:41:06;20.70;99.90
3752;DHT22;50827;47.014;7.652;2023-05-07T10:43:43;20.80;99.90
3752;DHT22;50827;47.014;7.652;2023-05-07T10:46:18;20.90;99.90
3752;DHT22;50827;47.014;7.652;2023-05-07T10:51:30;20.80;99.90
3752;DHT22;50827;47.014;7.652;2023-05-07T10:56:41;20.90;99.90
3752;DHT22;50827;47.014;7.652;2023-05-07T11:01:57;21.10;99.90
3752;DHT22;50827;47.014;7.652;2023-05-07T11:04:25;21.20;99.90
3752;DHT22;50827;47.014;7.652;2023-05-07T11:09:54;21.20;99.90
3752;DHT22;50827;47.014;7.652;2023-05-07T11:15:06;21.20;99.90
3752;DHT22;50827;47.014;7.652;2023-05-07T11:17:33;21.30;99.90
3752;DHT22;50827;47.014;7.652;2023-05-07T11:20:04;21.40;99.90
3752;DHT22;50827;47.014;7.652;2023-05-07T11:25:01;21.30;99.90
3752;DHT22;50827;47.014;7.652;2023-05-07T11:27:29;21.40;99.90
3752;DHT22;50827;47.014;7.652;2023-05-07T11:29:56;21.50;99.90
3752;DHT22;50827;47.014;7.652;2023-05-07T11:32:23;21.50;99.90
3752;DHT22;50827;47.014;7.652;2023-05-07T11:34:51;21.60;99.90
3752;DHT22;50827;47.014;7.652;2023-05-07T11:37:19;21.50;99.90
3752;DHT22;50827;47.014;7.652;2023-05-07T11:39:46;21.50;99.90
3752;DHT22;50827;47.014;7.652;2023-05-07T11:42:36;21.60;99.90
3752;DHT22;50827;47.014;7.652;2023-05-07T11:45:05;21.70;99.90
3752;DHT22;50827;47.014;7.652;2023-05-07T11:47:33;21.80;99.90
3752;DHT22;50827;47.014;7.652;2023-05-07T11:50:07;21.80;99.90
3752;DHT22;50827;47.014;7.652;2023-05-07T11:52:34;21.80;99.90
3752;DHT22;50827;47.014;7.652;2023-05-07T11:55:02;21.90;99.90
3752;DHT22;50827;47.014;7.652;2023-05-07T11:57:33;21.80;99.90
3752;DHT22;50827;47.014;7.652;2023-05-07T12:00:01;21.80;99.90
3752;DHT22;50827;47.014;7.652;2023-05-07T12:02:31;21.80;99.90
3752;DHT22;50827;47.014;7.652;2023-05-07T12:05:00;21.80;99.90
3752;DHT22;50827;47.014;7.652;2023-05-07T12:07:27;21.80;99.90
3752;DHT22;50827;47.014;7.652;2023-05-07T12:09:54;21.80;99.90
3752;DHT22;50827;47.014;7.652;2023-05-07T12:12:20;21.80;99.90
3752;DHT22;50827;47.014;7.652;2023-05-07T12:14:47;22.00;99.90
3752;DHT22;50827;47.014;7.652;2023-05-07T12:17:14;22.10;99.90
3752;DHT22;50827;47.014;7.652;2023-05-07T12:19:43;22.30;99.90
3752;DHT22;50827;47.014;7.652;2023-05-07T12:22:11;22.30;99.90
3752;DHT22;50827;47.014;7.652;2023-05-07T12:24:45;22.20;99.90
3752;DHT22;50827;47.014;7.652;2023-05-07T12:27:13;22.10;99.90
3752;DHT22;50827;47.014;7.652;2023-05-07T12:29:47;22.20;99.90
3752;DHT22;50827;47.014;7.652;2023-05-07T12:32:17;22.20;99.90
3752;DHT22;50827;47.014;7.652;2023-05-07T12:34:45;22.10;99.90
3752;DHT22;50827;47.014;7.652;2023-05-07T12:37:13;22.10;99.90
3752;DHT22;50827;47.014;7.652;2023-05-07T12:39:49;22.10;99.90
3752;DHT22;50827;47.014;7.652;2023-05-07T12:42:19;21.90;99.90
3752;DHT22;50827;47.014;7.652;2023-05-07T12:44:50;21.80;99.90
3752;DHT22;50827;47.014;7.652;2023-05-07T12:47:17;21.80;99.90
3752;DHT22;50827;47.014;7.652;2023-05-07T12:49:43;21.60;99.90
3752;DHT22;50827;47.014;7.652;2023-05-07T12:52:12;21.60;99.90
3752;DHT22;50827;47.014;7.652;2023-05-07T12:54:39;21.60;99.90
3752;DHT22;50827;47.014;7.652;2023-05-07T12:57:08;21.50;99.90
3752;DHT22;50827;47.014;7.652;2023-05-07T12:59:37;21.40;99.90
3752;DHT22;50827;47.014;7.652;2023-05-07T13:02:05;21.40;99.90
3752;DHT22;50827;47.014;7.652;2023-05-07T13:04:32;21.30;99.90
3752;DHT22;50827;47.014;7.652;2023-05-07T13:07:00;21.30;99.90
3752;DHT22;50827;47.014;7.652;2023-05-07T13:09:27;21.20;99.90
3752;DHT22;50827;47.014;7.652;2023-05-07T13:11:55;21.20;99.90
3752;DHT22;50827;47.014;7.652;2023-05-07T13:14:22;21.20;99.90
3752;DHT22;50827;47.014;7.652;2023-05-07T13:16:48;21.20;99.90
3752;DHT22;50827;47.014;7.652;2023-05-07T13:19:15;21.10;99.90
3752;DHT22;50827;47.014;7.652;2023-05-07T13:21:42;21.10;99.90
3752;DHT22;50827;47.014;7.652;2023-05-07T13:24:09;21.00;99.90
3752;DHT22;50827;47.014;7.652;2023-05-07T13:26:36;21.00;99.90
3752;DHT22;50827;47.014;7.652;2023-05-07T13:29:02;20.90;99.90
3752;DHT22;50827;47.014;7.652;2023-05-07T13:31:29;20.90;99.90
3752;DHT22;50827;47.014;7.652;2023-05-07T13:33:56;20.80;99.90
3752;DHT22;50827;47.014;7.652;2023-05-07T13:36:23;20.70;99.90
3752;DHT22;50827;47.014;7.652;2023-05-07T13:38:50;20.70;99.90
3752;DHT22;50827;47.014;7.652;2023-05-07T13:41:18;20.70;99.90
3752;DHT22;50827;47.014;7.652;2023-05-07T13:43:45;20.70;99.90
3752;DHT22;50827;47.014;7.652;2023-05-07T13:46:12;20.70;99.90
3752;DHT22;50827;47.014;7.652;2023-05-07T13:48:39;20.60;99.90
3752;DHT22;50827;47.014;7.652;2023-05-07T13:51:05;20.50;99.90
3752;DHT22;50827;47.014;7.652;2023-05-07T13:53:32;20.40;99.90
3752;DHT22;50827;47.014;7.652;2023-05-07T13:55:59;20.30;99.90
3752;DHT22;50827;47.014;7.652;2023-05-07T13:58:25;20.30;99.90
3752;DHT22;50827;47.014;7.652;2023-05-07T14:00:52;20.20;99.90
3752;DHT22;50827;47.014;7.652;2023-05-07T14:03:19;20.10;99.90
3752;DHT22;50827;47.014;7.652;2023-05-07T14:05:46;20.10;99.90
3752;DHT22;50827;47.014;7.652;2023-05-07T14:08:15;20.00;99.90
3752;DHT22;50827;47.014;7.652;2023-05-07T14:10:45;20.00;99.90
3752;DHT22;50827;47.014;7.652;2023-05-07T14:13:12;19.80;99.90
3752;DHT22;50827;47.014;7.652;2023-05-07T14:15:39;19.80;99.90
3752;DHT22;50827;47.014;7.652;2023-05-07T14:18:06;19.80;99.90
3752;DHT22;50827;47.014;7.652;2023-05-07T14:20:33;19.70;99.90
3752;DHT22;50827;47.014;7.652;2023-05-07T14:23:03;19.50;99.90
3752;DHT22;50827;47.014;7.652;2023-05-07T14:25:29;19.40;99.90
3752;DHT22;50827;47.014;7.652;2023-05-07T14:27:57;19.20;99.90
3752;DHT22;50827;47.014;7.652;2023-05-07T14:30:24;19.00;99.90
3752;DHT22;50827;47.014;7.652;2023-05-07T14:32:51;18.80;99.90
3752;DHT22;50827;47.014;7.652;2023-05-07T14:35:17;18.50;99.90
3752;DHT22;50827;47.014;7.652;2023-05-07T14:37:44;18.40;99.90
3752;DHT22;50827;47.014;7.652;2023-05-07T14:40:11;18.40;99.90
3752;DHT22;50827;47.014;7.652;2023-05-07T14:42:38;18.40;99.90
3752;DHT22;50827;47.014;7.652;2023-05-07T14:45:05;18.30;99.90
3752;DHT22;50827;47.014;7.652;2023-05-07T14:47:32;18.20;99.90
3752;DHT22;50827;47.014;7.652;2023-05-07T14:49:59;18.10;99.90
3752;DHT22;50827;47.014;7.652;2023-05-07T14:52:27;18.20;99.90
3752;DHT22;50827;47.014;7.652;2023-05-07T14:54:54;18.20;99.90
3752;DHT22;50827;47.014;7.652;2023-05-07T14:57:21;18.20;99.90
3752;DHT22;50827;47.014;7.652;2023-05-07T14:59:48;18.30;99.90
3752;DHT22;50827;47.014;7.652;2023-05-07T15:02:14;18.30;99.90
3752;DHT22;50827;47.014;7.652;2023-05-07T15:04:42;18.30;99.90
3752;DHT22;50827;47.014;7.652;2023-05-07T15:07:13;18.30;99.90
3752;DHT22;50827;47.014;7.652;2023-05-07T15:09:44;18.30;99.90
3752;DHT22;50827;47.014;7.652;2023-05-07T15:12:11;18.30;99.90
3752;DHT22;50827;47.014;7.652;2023-05-07T15:14:38;18.30;99.90
3752;DHT22;50827;47.014;7.652;2023-05-07T15:17:05;18.20;99.90
3752;DHT22;50827;47.014;7.652;2023-05-07T15:19:32;18.10;99.90
3752;DHT22;50827;47.014;7.652;2023-05-07T15:22:00;18.10;99.90
3752;DHT22;50827;47.014;7.652;2023-05-07T15:24:30;18.00;99.90
3752;DHT22;50827;47.014;7.652;2023-05-07T15:26:57;17.80;99.90
3752;DHT22;50827;47.014;7.652;2023-05-07T15:29:29;17.80;99.90
3752;DHT22;50827;47.014;7.652;2023-05-07T15:31:56;17.70;99.90
3752;DHT22;50827;47.014;7.652;2023-05-07T15:34:23;17.60;99.90
3752;DHT22;50827;47.014;7.652;2023-05-07T15:36:50;17.50;99.90
3752;DHT22;50827;47.014;7.652;2023-05-07T15:39:17;17.30;99.90
3752;DHT22;50827;47.014;7.652;2023-05-07T15:41:43;17.30;99.90
3752;DHT22;50827;47.014;7.652;2023-05-07T15:44:10;17.30;99.90
3752;DHT22;50827;47.014;7.652;2023-05-07T15:46:37;17.30;99.90
3752;DHT22;50827;47.014;7.652;2023-05-07T15:49:03;17.20;99.90
3752;DHT22;50827;47.014;7.652;2023-05-07T15:51:33;17.30;99.90
3752;DHT22;50827;47.014;7.652;2023-05-07T15:54:00;17.30;99.90
3752;DHT22;50827;47.014;7.652;2023-05-07T15:56:27;17.30;99.90
3752;DHT22;50827;47.014;7.652;2023-05-07T15:58:53;17.30;99.90
3752;DHT22;50827;47.014;7.652;2023-05-07T16:01:20;17.30;99.90
3752;DHT22;50827;47.014;7.652;2023-05-07T16:03:48;17.30;99.90
3752;DHT22;50827;47.014;7.652;2023-05-07T16:06:15;17.30;99.90
3752;DHT22;50827;47.014;7.652;2023-05-07T16:08:42;17.30;99.90